Time;durP1;ratioP1;P1;durP2;ratioP2;P2;SDS_P1;SDS_P2;PMS_P1;PMS_P2;Temp;Humidity;BMP_temperature;BMP_pressure;BME280_temperature;BME280_humidity;BME280_pressure;Samples;Min_cycle;Max_cycle;Signal;HPM_P1;HPM_P2
2022/04/28 00:01:35;;;;;;;3.75;2.60;;;11.40;75.40;;;;;;10490636;28;20039;-58
2022/04/28 00:06:35;;;;;;;7.35;3.65;;;11.40;75.40;;;;;;10490945;28;20053;-55
2022/04/28 00:11:36;;;;;;;5.75;2.83;;;11.40;75.40;;;;;;10489123;28;20573;-57
2022/04/28 00:16:37;;;;;;;4.95;3.10;;;11.30;75.30;;;;;;10490190;28;20516;-57
2022/04/28 00:21:38;;;;;;;6.50;2.80;;;11.30;75.30;;;;;;10488952;28;20032;-58
2022/04/28 00:26:38;;;;;;;5.68;2.90;;;11.30;75.40;;;;;;10487869;28;20131;-59
2022/04/28 00:31:39;;;;;;;4.03;2.58;;;11.30;75.30;;;;;;10487287;28;20082;-59
2022/04/28 00:36:40;;;;;;;7.40;3.03;;;11.20;75.20;;;;;;10493537;28;20119;-55
2022/04/28 00:41:40;;;;;;;4.07;2.35;;;11.20;75.20;;;;;;10487423;28;20051;-59
2022/04/28 00:46:43;;;;;;;4.80;2.90;;;11.20;75.10;;;;;;10488095;28;20044;-57
2022/04/28 00:51:44;;;;;;;8.75;2.72;;;11.20;75.20;;;;;;10478195;28;20116;-57
2022/04/28 00:56:45;;;;;;;3.80;2.83;;;11.20;75.10;;;;;;10486771;28;20423;-57
2022/04/28 01:01:46;;;;;;;5.07;2.78;;;11.20;75.10;;;;;;10483595;28;20036;-54
2022/04/28 01:06:47;;;;;;;5.70;3.10;;;11.20;75.10;;;;;;10487867;28;20604;-57
2022/04/28 01:11:48;;;;;;;5.20;2.58;;;11.10;75.00;;;;;;10486573;28;20075;-56
2022/04/28 01:16:48;;;;;;;4.57;2.75;;;11.10;75.00;;;;;;10488983;28;20029;-57
2022/04/28 01:21:51;;;;;;;3.80;2.45;;;11.10;75.00;;;;;;10486632;28;20474;-59
2022/04/28 01:26:58;;;;;;;4.65;2.90;;;11.10;75.00;;;;;;10487519;28;20482;-57
2022/04/28 01:31:59;;;;;;;4.53;2.97;;;11.00;75.00;;;;;;10487146;28;20025;-57
2022/04/28 01:36:59;;;;;;;5.70;3.85;;;11.00;75.00;;;;;;10493853;28;20754;-58
2022/04/28 01:42:00;;;;;;;5.93;3.17;;;11.00;75.00;;;;;;10485903;28;20673;-57
2022/04/28 01:47:01;;;;;;;6.05;3.20;;;11.00;75.00;;;;;;10486609;28;20016;-57
2022/04/28 01:57:21;;;;;;;7.25;2.67;;;10.90;74.90;;;;;;10475676;28;20021;-56
2022/04/28 02:02:23;;;;;;;3.25;2.47;;;10.90;74.90;;;;;;10484932;28;20035;-57
2022/04/28 02:07:24;;;;;;;4.40;2.72;;;10.90;74.90;;;;;;10483914;28;20036;-57
2022/04/28 02:12:26;;;;;;;4.88;2.90;;;10.90;74.90;;;;;;10489041;28;20032;-57
2022/04/28 02:17:27;;;;;;;6.70;2.70;;;10.80;74.80;;;;;;10487683;28;20090;-56
2022/04/28 02:22:28;;;;;;;6.07;2.95;;;10.80;74.80;;;;;;10489879;28;20046;-58
2022/04/28 02:27:29;;;;;;;4.07;2.60;;;10.80;74.80;;;;;;10494053;28;20355;-58
2022/04/28 02:33:08;;;;;;;5.15;2.60;;;10.80;74.80;;;;;;10492475;28;20037;-58
2022/04/28 02:37:50;;;;;;;3.50;2.75;;;10.80;74.80;;;;;;10497761;28;20040;-58
2022/04/28 02:42:52;;;;;;;5.82;3.00;;;10.70;74.70;;;;;;10491778;28;20037;-56
2022/04/28 02:47:53;;;;;;;4.60;2.60;;;10.70;74.70;;;;;;10491586;28;20037;-58
2022/04/28 02:52:53;;;;;;;4.22;2.50;;;10.70;74.70;;;;;;10491154;28;20028;-55
2022/04/28 02:57:54;;;;;;;5.03;2.65;;;10.70;74.70;;;;;;10491017;28;20386;-56
2022/04/28 03:02:55;;;;;;;4.57;3.10;;;10.70;74.70;;;;;;10490507;28;20032;-60
2022/04/28 03:13:17;;;;;;;5.35;3.22;;;10.70;74.70;;;;;;10490679;28;20135;-57
2022/04/28 03:18:18;;;;;;;4.13;2.88;;;10.70;74.70;;;;;;10487582;28;20564;-55
2022/04/28 03:23:19;;;;;;;4.20;2.85;;;10.70;74.80;;;;;;10494114;28;20121;-59
2022/04/28 03:28:20;;;;;;;4.97;2.70;;;10.70;74.80;;;;;;10493213;28;20027;-59
2022/04/28 03:33:21;;;;;;;6.55;2.97;;;10.60;74.80;;;;;;10491790;28;20107;-59
2022/04/28 03:38:22;;;;;;;4.72;3.03;;;10.60;74.80;;;;;;10505543;28;20100;-60
2022/04/28 03:43:25;;;;;;;7.13;3.45;;;10.70;74.90;;;;;;10493652;28;20148;-59
2022/04/28 03:48:26;;;;;;;4.50;3.22;;;10.60;74.90;;;;;;10491338;28;20393;-59
2022/04/28 03:53:26;;;;;;;5.47;2.97;;;10.70;75.60;;;;;;10493221;28;20049;-57
2022/04/28 03:58:27;;;;;;;3.80;2.42;;;10.60;75.00;;;;;;10495716;28;20019;-57
2022/04/28 04:03:28;;;;;;;5.57;2.63;;;10.60;75.00;;;;;;10490134;28;20060;-59
2022/04/28 04:08:29;;;;;;;5.50;3.78;;;10.70;75.10;;;;;;10485222;28;20055;-59
2022/04/28 04:13:29;;;;;;;5.03;3.35;;;10.60;75.00;;;;;;10490024;28;20036;-58
2022/04/28 04:18:30;;;;;;;4.93;2.88;;;10.70;75.10;;;;;;10489189;28;20078;-57
2022/04/28 04:23:31;;;;;;;4.97;3.03;;;10.70;75.10;;;;;;10486112;28;20139;-57
2022/04/28 04:28:33;;;;;;;5.85;2.72;;;10.60;75.10;;;;;;10489033;28;20112;-55
2022/04/28 04:33:35;;;;;;;4.43;3.00;;;10.60;75.10;;;;;;10489450;28;20368;-57
2022/04/28 04:38:36;;;;;;;6.63;3.05;;;10.70;75.20;;;;;;10494948;28;20107;-59
2022/04/28 04:43:38;;;;;;;4.05;2.55;;;10.60;75.20;;;;;;10488435;28;20054;-60
2022/04/28 04:48:39;;;;;;;8.27;2.85;;;10.60;75.20;;;;;;10488695;28;20507;-53
2022/04/28 04:53:40;;;;;;;5.90;3.22;;;10.60;75.20;;;;;;10488903;28;20086;-57
2022/04/28 04:58:41;;;;;;;5.32;2.55;;;10.60;75.30;;;;;;10488140;28;20491;-59
2022/04/28 05:03:41;;;;;;;4.85;3.15;;;10.70;75.40;;;;;;10488612;28;20060;-59
2022/04/28 05:08:42;;;;;;;4.38;2.80;;;10.70;75.40;;;;;;10486366;28;20091;-57
2022/04/28 05:13:43;;;;;;;4.35;2.67;;;10.70;75.40;;;;;;10493494;28;20040;-57
2022/04/28 05:18:44;;;;;;;4.88;2.80;;;10.70;75.40;;;;;;10486965;28;20136;-57
2022/04/28 05:23:45;;;;;;;4.90;2.85;;;10.70;75.40;;;;;;10486618;28;20043;-57
2022/04/28 05:28:45;;;;;;;3.33;2.42;;;10.70;75.40;;;;;;10486655;28;20071;-57
2022/04/28 05:33:46;;;;;;;6.78;2.78;;;10.70;75.50;;;;;;10486462;28;20025;-57
2022/04/28 05:38:47;;;;;;;4.65;3.00;;;10.70;75.50;;;;;;10492656;28;20037;-58
2022/04/28 05:49:08;;;;;;;3.45;2.50;;;10.70;75.50;;;;;;10486153;28;20090;-59
2022/04/28 05:54:09;;;;;;;4.78;2.60;;;10.80;75.60;;;;;;10490153;28;20074;-59
2022/04/28 05:59:10;;;;;;;9.27;2.90;;;10.80;75.60;;;;;;10494717;28;20032;-55
2022/04/28 06:04:11;;;;;;;5.72;2.80;;;10.80;75.60;;;;;;10494753;28;20092;-58
2022/04/28 06:09:12;;;;;;;7.15;2.95;;;10.90;75.60;;;;;;10493161;28;20052;-60
2022/04/28 06:14:12;;;;;;;5.65;2.67;;;10.90;75.50;;;;;;10476507;28;20032;-58
2022/04/28 06:19:13;;;;;;;9.85;2.85;;;10.90;75.50;;;;;;10493962;28;20391;-55
2022/04/28 06:24:14;;;;;;;6.68;2.83;;;11.00;75.40;;;;;;10492799;28;20044;-57
2022/04/28 06:29:15;;;;;;;5.20;2.80;;;11.00;75.40;;;;;;10491315;28;20163;-57
2022/04/28 06:34:15;;;;;;;4.03;2.40;;;11.00;75.30;;;;;;10468090;28;20425;-55
2022/04/28 06:39:16;;;;;;;4.20;2.35;;;11.00;75.30;;;;;;10488752;28;20043;-60
2022/04/28 06:44:17;;;;;;;4.32;2.55;;;11.00;75.20;;;;;;10484166;28;20040;-60
2022/04/28 06:49:18;;;;;;;5.22;2.72;;;11.10;75.20;;;;;;10490091;28;20549;-59
2022/04/28 06:54:18;;;;;;;3.60;2.50;;;11.10;75.10;;;;;;10489452;28;20096;-59
2022/04/28 06:59:20;;;;;;;4.72;2.50;;;11.10;75.00;;;;;;10489518;28;20033;-59
2022/04/28 07:04:21;;;;;;;5.13;2.33;;;11.10;75.00;;;;;;10487959;28;20451;-57
2022/04/28 07:09:22;;;;;;;5.40;2.47;;;11.50;75.70;;;;;;10476564;28;20041;-60
2022/04/28 07:14:22;;;;;;;2.90;2.50;;;11.20;74.90;;;;;;10485870;28;20573;-58
2022/04/28 07:19:23;;;;;;;4.38;2.20;;;11.20;74.90;;;;;;10486818;28;20514;-57
2022/04/28 07:24:24;;;;;;;5.05;2.30;;;11.20;74.90;;;;;;10486052;28;20136;-59
2022/04/28 07:29:25;;;;;;;3.17;2.30;;;11.20;74.80;;;;;;10488883;28;20040;-56
2022/04/28 07:34:26;;;;;;;3.30;2.30;;;11.20;74.80;;;;;;10490557;28;20395;-56
2022/04/28 07:39:26;;;;;;;6.90;2.90;;;11.30;74.80;;;;;;10488201;28;20021;-57
2022/04/28 07:44:27;;;;;;;3.25;2.10;;;11.30;74.80;;;;;;10485621;28;20040;-58
2022/04/28 07:49:28;;;;;;;5.47;2.45;;;11.30;74.90;;;;;;10488981;28;20024;-58
2022/04/28 07:54:28;;;;;;;3.30;2.33;;;11.30;74.90;;;;;;10490378;28;20056;-57
2022/04/28 07:59:29;;;;;;;2.70;2.25;;;11.30;74.90;;;;;;10486832;28;20027;-58
2022/04/28 08:04:32;;;;;;;7.03;2.70;;;11.30;74.90;;;;;;10474243;28;20040;-56
2022/04/28 08:09:33;;;;;;;4.85;2.42;;;11.40;74.80;;;;;;10473820;28;20049;-56
2022/04/28 08:14:33;;;;;;;4.75;2.28;;;11.50;74.80;;;;;;10486220;28;20029;-57
2022/04/28 08:19:34;;;;;;;4.25;2.40;;;11.60;74.80;;;;;;10477235;28;20024;-57
2022/04/28 08:24:35;;;;;;;6.07;2.83;;;11.60;74.80;;;;;;10452111;28;20044;-58
2022/04/28 08:29:36;;;;;;;4.00;2.50;;;11.60;74.70;;;;;;10483842;28;20487;-59
2022/04/28 08:34:37;;;;;;;4.63;2.92;;;11.70;74.70;;;;;;10481657;28;20032;-57
2022/04/28 08:39:38;;;;;;;5.80;2.50;;;11.70;74.60;;;;;;10476860;28;20368;-57
2022/04/28 08:44:39;;;;;;;2.90;2.17;;;11.70;74.70;;;;;;10480473;28;20087;-57
2022/04/28 08:49:44;;;;;;;4.15;2.67;;;11.70;74.80;;;;;;10482285;28;20025;-59
2022/04/28 08:54:46;;;;;;;3.35;2.30;;;11.70;74.80;;;;;;10483284;28;20033;-58
2022/04/28 08:59:48;;;;;;;5.18;2.50;;;11.70;74.80;;;;;;10485668;28;20019;-59
2022/04/28 09:04:49;;;;;;;5.63;2.40;;;11.70;74.80;;;;;;10483644;28;20151;-59
2022/04/28 09:09:50;;;;;;;3.33;2.38;;;11.80;74.90;;;;;;10469602;28;20131;-57
2022/04/28 09:14:55;;;;;;;4.05;2.30;;;11.80;74.90;;;;;;10442785;28;20080;-56
2022/04/28 09:19:59;;;;;;;3.70;2.20;;;11.70;74.90;;;;;;10443751;28;20032;-59
2022/04/28 09:25:00;;;;;;;6.60;2.90;;;11.90;75.00;;;;;;10436152;28;20049;-58
2022/04/28 09:30:01;;;;;;;4.57;2.30;;;11.90;75.00;;;;;;10438378;28;20450;-58
2022/04/28 09:35:11;;;;;;;3.25;2.53;;;11.90;75.00;;;;;;10427655;28;20040;-59
2022/04/28 09:45:31;;;;;;;4.38;2.05;;;12.00;74.80;;;;;;10442771;28;20053;-56
2022/04/28 09:50:32;;;;;;;4.07;2.30;;;12.10;74.80;;;;;;10439813;28;20024;-57
2022/04/28 09:55:34;;;;;;;4.82;2.20;;;12.10;74.80;;;;;;10422868;28;20471;-58
2022/04/28 10:00:35;;;;;;;2.85;1.98;;;12.20;74.60;;;;;;10424458;28;20061;-53
2022/04/28 10:05:36;;;;;;;2.50;2.00;;;12.30;74.60;;;;;;10442563;28;20053;-58
2022/04/28 10:10:39;;;;;;;4.78;2.47;;;12.30;74.50;;;;;;10443448;28;20499;-57
2022/04/28 10:15:40;;;;;;;3.42;2.50;;;12.40;74.50;;;;;;10446129;28;20032;-60
2022/04/28 10:20:45;;;;;;;3.42;2.50;;;12.40;74.50;;;;;;10441417;28;20025;-56
2022/04/28 10:36:26;;;;;;;3.30;2.10;;;12.50;74.60;;;;;;10442258;28;20120;-53
2022/04/28 10:41:29;;;;;;;6.10;2.50;;;12.60;74.50;;;;;;10447298;28;20040;-57
2022/04/28 10:46:31;;;;;;;2.92;2.08;;;12.60;74.50;;;;;;10447600;28;20079;-57
2022/04/28 10:51:33;;;;;;;5.78;2.22;;;12.70;74.40;;;;;;10447095;28;20075;-58
2022/04/28 10:56:40;;;;;;;4.20;2.08;;;12.70;74.50;;;;;;10440846;28;20479;-57
2022/04/28 11:01:42;;;;;;;2.20;1.98;;;12.90;74.70;;;;;;10441966;28;20480;-59
2022/04/28 11:06:50;;;;;;;4.25;2.00;;;12.90;74.50;;;;;;10446677;28;20575;-58
2022/04/28 11:11:51;;;;;;;4.15;2.10;;;13.10;74.50;;;;;;10447426;28;20399;-59
2022/04/28 11:16:52;;;;;;;4.55;2.38;;;13.10;74.40;;;;;;10447272;28;20036;-58
2022/04/28 11:21:53;;;;;;;3.58;1.85;;;13.10;74.60;;;;;;10446252;28;20186;-58
2022/04/28 11:26:55;;;;;;;5.47;2.03;;;13.10;75.40;;;;;;10446627;28;20036;-58
2022/04/28 11:31:55;;;;;;;3.47;2.15;;;13.20;74.80;;;;;;10446684;28;20468;-60
2022/04/28 11:36:56;;;;;;;5.43;2.10;;;13.20;74.90;;;;;;10445421;28;20017;-58
2022/04/28 11:41:58;;;;;;;3.50;1.98;;;13.20;75.00;;;;;;10446464;28;20052;-58
2022/04/28 11:46:59;;;;;;;4.43;2.10;;;13.30;75.20;;;;;;10444877;28;20048;-55
2022/04/28 11:52:00;;;;;;;4.90;1.88;;;13.30;75.20;;;;;;10442983;28;20094;-58
2022/04/28 11:57:11;;;;;;;4.95;1.92;;;13.50;75.20;;;;;;10443826;28;20044;-58
2022/04/28 12:02:29;;;;;;;2.90;1.88;;;13.50;75.10;;;;;;10444975;28;20087;-58
2022/04/28 12:07:32;;;;;;;2.78;1.80;;;13.60;75.20;;;;;;10437673;28;20068;-55
2022/04/28 12:23:37;;;;;;;3.22;1.75;;;13.90;74.70;;;;;;10443699;28;20036;-58
2022/04/28 12:28:40;;;;;;;5.35;2.35;;;13.90;74.70;;;;;;10442600;28;20552;-58
2022/04/28 12:33:45;;;;;;;4.88;2.47;;;14.10;73.70;;;;;;10442993;28;20041;-56
2022/04/28 12:38:49;;;;;;;6.60;2.50;;;14.30;72.70;;;;;;10444221;28;20029;-58
2022/04/28 12:43:59;;;;;;;5.55;2.65;;;14.20;72.10;;;;;;10434941;28;20043;-55
2022/04/28 12:49:03;;;;;;;6.93;3.17;;;14.50;71.80;;;;;;10444074;28;20395;-56
2022/04/28 12:54:15;;;;;;;7.72;3.25;;;14.40;71.50;;;;;;10440060;28;20031;-49
2022/04/28 12:59:18;;;;;;;7.00;2.65;;;14.50;71.40;;;;;;10441672;28;20021;-58
2022/04/28 13:04:22;;;;;;;9.13;3.50;;;14.70;71.10;;;;;;10442648;28;20060;-58
2022/04/28 13:09:23;;;;;;;7.57;3.45;;;14.90;70.90;;;;;;10440739;28;20072;-57
2022/04/28 13:14:24;;;;;;;9.05;4.63;;;14.90;70.50;;;;;;10431063;28;20460;-58
2022/04/28 13:19:25;;;;;;;6.15;3.63;;;14.90;70.70;;;;;;10438801;28;20067;-54
2022/04/28 13:24:26;;;;;;;6.53;3.78;;;14.80;70.90;;;;;;10437527;28;20037;-58
2022/04/28 13:29:26;;;;;;;7.75;3.42;;;14.70;70.60;;;;;;10439391;28;20021;-58
2022/04/28 13:34:27;;;;;;;5.82;3.50;;;14.90;70.80;;;;;;10439645;28;20039;-56
2022/04/28 13:39:28;;;;;;;9.00;3.97;;;14.90;70.40;;;;;;10439447;28;20025;-58
2022/04/28 13:44:29;;;;;;;6.93;3.60;;;14.90;70.90;;;;;;10440362;28;20100;-58
2022/04/28 13:49:30;;;;;;;7.70;3.85;;;14.90;70.50;;;;;;10442600;28;20033;-55
2022/04/28 13:54:31;;;;;;;9.43;3.50;;;15.00;70.90;;;;;;10443091;28;20033;-59
2022/04/28 13:59:31;;;;;;;10.38;3.33;;;15.00;70.40;;;;;;10441590;28;20032;-59
2022/04/28 14:04:32;;;;;;;7.32;3.22;;;15.10;70.50;;;;;;10438786;28;20052;-59
2022/04/28 14:09:33;;;;;;;8.48;3.53;;;15.00;70.50;;;;;;10433563;28;20045;-59
2022/04/28 14:14:34;;;;;;;11.00;3.38;;;15.20;70.50;;;;;;10442775;28;20471;-59
2022/04/28 14:19:35;;;;;;;8.25;3.50;;;15.30;70.20;;;;;;10449749;28;20037;-58
2022/04/28 14:24:35;;;;;;;11.35;3.50;;;15.40;69.80;;;;;;10448023;28;20083;-59
2022/04/28 14:29:36;;;;;;;6.35;3.60;;;15.40;69.60;;;;;;10446178;28;20033;-59
2022/04/28 14:34:37;;;;;;;7.43;3.10;;;15.50;69.60;;;;;;10452313;28;20088;-59
2022/04/28 14:39:39;;;;;;;10.20;3.63;;;15.20;69.50;;;;;;10450165;28;20120;-58
2022/04/28 14:44:40;;;;;;;7.85;2.90;;;15.10;70.00;;;;;;10449388;28;20041;-58
2022/04/28 14:55:03;;;;;;;6.45;3.08;;;15.40;69.80;;;;;;10446745;28;20493;-57
2022/04/28 15:00:09;;;;;;;5.75;3.10;;;15.50;69.40;;;;;;10444579;28;20535;-57
2022/04/28 15:05:10;;;;;;;6.50;2.67;;;15.50;69.40;;;;;;10449332;28;20102;-58
2022/04/28 15:10:12;;;;;;;6.22;3.08;;;15.60;69.50;;;;;;10448174;28;20094;-58
2022/04/28 15:15:14;;;;;;;5.97;2.95;;;15.70;69.00;;;;;;10443623;28;20033;-58
2022/04/28 15:20:14;;;;;;;7.57;3.13;;;15.90;69.00;;;;;;10439718;28;20059;-58
2022/04/28 15:25:16;;;;;;;8.57;3.35;;;15.90;68.60;;;;;;10443143;28;20570;-60
2022/04/28 15:30:16;;;;;;;6.75;3.08;;;15.70;68.70;;;;;;10448908;28;20498;-60
2022/04/28 15:35:17;;;;;;;9.48;3.00;;;15.80;68.90;;;;;;10446651;28;20029;-59
2022/04/28 15:40:18;;;;;;;7.68;3.17;;;15.70;68.80;;;;;;10445565;28;20025;-56
2022/04/28 15:45:19;;;;;;;6.43;3.10;;;16.10;69.30;;;;;;10443565;28;20041;-57
2022/04/28 15:50:20;;;;;;;7.05;3.80;;;15.70;69.00;;;;;;10444556;28;20025;-56
2022/04/28 15:55:21;;;;;;;7.30;3.17;;;15.40;69.30;;;;;;10445937;28;20387;-56
2022/04/28 16:00:22;;;;;;;7.30;3.35;;;15.20;69.60;;;;;;10445636;28;20028;-56
2022/04/28 16:05:24;;;;;;;8.68;3.30;;;14.70;70.30;;;;;;10443875;28;20412;-56
2022/04/28 16:10:24;;;;;;;6.80;3.10;;;14.40;71.00;;;;;;10443613;28;20037;-56
2022/04/28 16:15:25;;;;;;;11.13;3.22;;;14.30;71.40;;;;;;10443831;28;20248;-57
2022/04/28 16:20:27;;;;;;;6.45;2.95;;;14.20;71.40;;;;;;10442907;28;20104;-57
2022/04/28 16:25:28;;;;;;;14.32;3.40;;;14.00;71.80;;;;;;10443507;28;20276;-59
2022/04/28 16:30:28;;;;;;;11.95;3.30;;;13.90;72.20;;;;;;10445395;28;20421;-57
2022/04/28 16:35:30;;;;;;;6.05;2.90;;;13.80;72.20;;;;;;10444690;28;20078;-57
2022/04/28 16:40:32;;;;;;;7.72;3.00;;;13.80;72.50;;;;;;10443848;28;20387;-57
2022/04/28 16:45:33;;;;;;;6.85;2.60;;;13.50;72.70;;;;;;10441618;28;20507;-56
2022/04/28 16:50:34;;;;;;;6.75;3.17;;;13.60;73.50;;;;;;10442023;28;20017;-57
2022/04/28 16:55:36;;;;;;;6.28;3.10;;;13.80;72.60;;;;;;10441253;28;20029;-57
2022/04/28 17:00:38;;;;;;;4.85;2.65;;;13.60;73.00;;;;;;10426434;28;20029;-56
2022/04/28 17:05:39;;;;;;;19.63;4.88;;;13.40;73.50;;;;;;10434356;28;20526;-58
2022/04/28 17:10:41;;;;;;;7.00;3.00;;;13.30;74.00;;;;;;10443367;28;20035;-57
2022/04/28 17:15:42;;;;;;;8.52;2.97;;;13.20;74.10;;;;;;10436215;28;20373;-57
2022/04/28 17:20:42;;;;;;;8.75;2.53;;;13.20;74.20;;;;;;10441973;28;20039;-59
2022/04/28 17:25:43;;;;;;;11.52;3.00;;;13.20;74.70;;;;;;10442051;28;20123;-61
2022/04/28 17:30:44;;;;;;;8.98;2.83;;;13.50;74.40;;;;;;10439927;28;20048;-58
2022/04/28 17:35:45;;;;;;;3.55;2.38;;;13.80;74.00;;;;;;10442440;28;20068;-58
2022/04/28 17:40:46;;;;;;;4.47;2.20;;;14.10;73.90;;;;;;10443077;28;20327;-58
2022/04/28 17:45:47;;;;;;;5.30;1.98;;;14.30;73.80;;;;;;10442208;28;20491;-61
2022/04/28 17:50:48;;;;;;;2.47;1.92;;;14.50;73.80;;;;;;10442807;28;20068;-59
2022/04/28 18:01:08;;;;;;;4.32;1.88;;;14.70;73.90;;;;;;10442133;28;20025;-60
2022/04/28 18:06:11;;;;;;;3.88;2.00;;;14.80;74.00;;;;;;10441933;28;20056;-61
2022/04/28 18:11:12;;;;;;;3.80;1.80;;;14.80;74.00;;;;;;10442413;28;20399;-60
2022/04/28 18:16:14;;;;;;;3.08;2.03;;;14.40;73.80;;;;;;10438873;28;20049;-60
2022/04/28 18:21:16;;;;;;;7.32;2.42;;;14.90;74.20;;;;;;10441412;28;20017;-60
2022/04/28 18:26:19;;;;;;;5.15;1.83;;;14.80;74.20;;;;;;10440929;28;20025;-61
2022/04/28 18:31:21;;;;;;;6.05;2.35;;;14.80;74.30;;;;;;10441837;28;20052;-62
2022/04/28 18:47:07;;;;;;;4.18;1.73;;;14.70;74.40;;;;;;10436446;28;20264;-61
2022/04/28 18:52:09;;;;;;;3.88;2.10;;;14.70;74.60;;;;;;10439587;28;20044;-62
2022/04/28 18:57:15;;;;;;;3.65;1.75;;;14.70;74.70;;;;;;10438137;28;20514;-61
2022/04/28 19:02:16;;;;;;;2.50;1.73;;;14.70;74.80;;;;;;10429833;28;20042;-61
2022/04/28 19:07:19;;;;;;;2.60;1.42;;;14.60;74.80;;;;;;10441856;28;20114;-62
2022/04/28 19:12:20;;;;;;;2.28;1.65;;;14.60;74.90;;;;;;10426343;28;20044;-72
2022/04/28 19:17:28;;;;;;;4.53;2.00;;;14.50;74.90;;;;;;10438280;28;20440;-73
2022/04/28 19:22:29;;;;;;;3.53;2.23;;;14.50;74.90;;;;;;10446773;28;20066;-61
2022/04/28 19:27:31;;;;;;;3.63;1.60;;;14.50;75.00;;;;;;10440009;28;20021;-67
2022/04/28 19:32:31;;;;;;;2.97;1.58;;;14.40;74.90;;;;;;10441162;28;20105;-60
2022/04/28 19:37:32;;;;;;;4.63;1.88;;;14.40;75.00;;;;;;10427148;28;20017;-66
2022/04/28 19:42:33;;;;;;;3.92;1.77;;;14.40;75.00;;;;;;10416039;28;20038;-58
2022/04/28 19:47:34;;;;;;;4.78;1.95;;;14.30;75.00;;;;;;10418196;28;20037;-59
2022/04/28 19:52:35;;;;;;;3.50;1.73;;;14.30;75.00;;;;;;10422534;28;20575;-61
2022/04/28 19:57:36;;;;;;;4.10;2.13;;;14.30;75.00;;;;;;10427830;28;20367;-61
2022/04/28 20:02:37;;;;;;;3.95;2.63;;;14.20;75.00;;;;;;10424525;28;20049;-57
2022/04/28 20:07:38;;;;;;;2.85;1.67;;;14.20;75.00;;;;;;10422225;28;20033;-62
2022/04/28 20:12:39;;;;;;;2.97;1.90;;;14.20;75.00;;;;;;10421444;28;20057;-58
2022/04/28 20:17:42;;;;;;;3.13;1.90;;;14.10;75.00;;;;;;10426864;28;20188;-62
2022/04/28 20:22:43;;;;;;;4.65;2.13;;;14.10;75.00;;;;;;10424209;28;20155;-61
2022/04/28 20:27:47;;;;;;;2.63;1.67;;;14.10;75.00;;;;;;10421032;28;20125;-61
2022/04/28 20:32:49;;;;;;;3.63;2.20;;;14.00;75.60;;;;;;10438713;28;20090;-56
2022/04/28 20:37:51;;;;;;;3.45;2.20;;;14.00;74.90;;;;;;10439029;28;20143;-60
2022/04/28 20:42:51;;;;;;;4.35;2.10;;;14.00;75.00;;;;;;10424263;28;20045;-58
2022/04/28 20:47:53;;;;;;;4.15;1.75;;;13.90;75.00;;;;;;10427311;28;20021;-60
2022/04/28 20:52:53;;;;;;;4.32;2.15;;;13.90;75.00;;;;;;10418741;28;20044;-60
2022/04/28 20:57:54;;;;;;;3.78;2.35;;;13.90;75.00;;;;;;10424670;28;20533;-57
2022/04/28 21:02:55;;;;;;;4.28;2.38;;;13.80;75.00;;;;;;10419047;28;20041;-60
2022/04/28 21:07:56;;;;;;;4.95;2.03;;;13.80;75.00;;;;;;10443733;28;20037;-57
2022/04/28 21:12:57;;;;;;;8.57;2.35;;;13.70;75.00;;;;;;10437784;28;20090;-56
2022/04/28 21:17:58;;;;;;;6.72;1.95;;;13.70;75.10;;;;;;10436145;28;20041;-59
2022/04/28 21:22:59;;;;;;;4.07;2.20;;;13.70;75.10;;;;;;10425118;28;20037;-60
2022/04/28 21:28:00;;;;;;;4.63;2.00;;;13.70;75.20;;;;;;10415682;28;20022;-59
2022/04/28 21:33:01;;;;;;;5.30;2.25;;;13.60;75.10;;;;;;10417324;28;20025;-56
2022/04/28 21:38:03;;;;;;;6.00;2.20;;;13.60;75.20;;;;;;10419391;28;20087;-58
2022/04/28 21:43:07;;;;;;;3.42;1.98;;;13.60;75.20;;;;;;10424603;28;20086;-58
2022/04/28 21:48:08;;;;;;;4.68;2.33;;;13.50;75.20;;;;;;10443824;28;20059;-57
2022/04/28 21:53:09;;;;;;;2.83;1.95;;;13.50;75.20;;;;;;10446086;28;20499;-56
2022/04/28 21:58:11;;;;;;;4.60;2.33;;;13.50;75.30;;;;;;10445166;28;20017;-60
2022/04/28 22:03:12;;;;;;;5.28;2.40;;;13.50;75.30;;;;;;10440250;28;20147;-61
2022/04/28 22:13:31;;;;;;;5.05;2.17;;;13.40;75.30;;;;;;10443578;28;20037;-59
2022/04/28 22:18:32;;;;;;;4.85;2.47;;;13.40;75.30;;;;;;10444753;28;20483;-58
2022/04/28 22:23:33;;;;;;;3.30;2.10;;;13.30;75.30;;;;;;10444202;28;20029;-60
2022/04/28 22:28:34;;;;;;;3.08;2.20;;;13.30;75.30;;;;;;10444415;28;20028;-59
2022/04/28 22:33:37;;;;;;;3.50;2.00;;;13.20;75.30;;;;;;10444550;28;20035;-59
2022/04/28 22:38:38;;;;;;;5.10;2.53;;;13.20;75.30;;;;;;10451706;28;20039;-59
2022/04/28 22:43:41;;;;;;;4.35;2.25;;;13.20;75.40;;;;;;10452113;28;20051;-61
2022/04/28 22:48:41;;;;;;;5.97;2.97;;;13.20;75.40;;;;;;10452520;28;20021;-59
2022/04/28 22:53:43;;;;;;;5.05;2.45;;;13.10;75.40;;;;;;10453367;28;20025;-60
2022/04/28 22:58:44;;;;;;;4.88;2.35;;;13.10;75.40;;;;;;10452266;28;20092;-57
2022/04/28 23:03:45;;;;;;;5.35;2.45;;;13.10;75.50;;;;;;10452762;28;20032;-60
2022/04/28 23:08:45;;;;;;;4.32;2.30;;;13.10;75.50;;;;;;10451384;28;20610;-61
2022/04/28 23:13:48;;;;;;;5.97;2.70;;;13.00;75.50;;;;;;10451036;28;20033;-59
2022/04/28 23:18:48;;;;;;;7.13;2.88;;;13.00;75.60;;;;;;10451133;28;20033;-58
2022/04/28 23:23:49;;;;;;;6.22;2.30;;;13.00;75.60;;;;;;10450918;28;20144;-61
2022/04/28 23:28:50;;;;;;;8.43;2.80;;;13.00;75.70;;;;;;10451485;28;20029;-57
2022/04/28 23:33:51;;;;;;;6.30;3.00;;;12.90;75.70;;;;;;10451646;28;20054;-57
2022/04/28 23:38:51;;;;;;;4.75;2.05;;;12.90;75.70;;;;;;10448452;28;20442;-58
2022/04/28 23:43:52;;;;;;;5.53;2.88;;;12.90;75.90;;;;;;10449955;28;20061;-57
2022/04/28 23:48:53;;;;;;;5.57;3.10;;;13.10;76.10;;;;;;10441281;28;20025;-58
2022/04/28 23:59:13;;;;;;;8.35;2.88;;;12.80;76.00;;;;;;10445256;28;20028;-58
